Jonni Ritscher — A8JT7 — position and weather

sailwx.info

Track history (hours):
 
Tides and Currents Weather Stations Pressure Air Temp Water Temp Dewpoint Dewpoint Depression Visibility Wind Speed Wind Dir Waves Ship Positions

Jonni Ritscher

Last reported at 2014-Sep-30 08:33 UTC. Time now 2014-Sep-30 18:08 UTC.
Position N 57°03' E 018°51'.

Length 178 m; draft 10.5 m.

Type: Ship. MMSI: 636091136.

Date/timePositionNaut miles runAvg speedWind from/ knotsBaromVisibWave heightAir tempDewpointWater temp
2014-Sep-30 08:33N 57°03' E 018°51'1716.6
2014-Sep-30 07:32N 56°49' E 018°32'1616.8
2014-Sep-30 06:33N 56°39' E 018°08'2217.6
2014-Sep-30 05:19N 56°26' E 017°37'1416.5
2014-Sep-30 04:30N 56°17' E 017°18'3116.3
2014-Sep-30 02:33N 55°58' E 016°33'1616.3
2014-Sep-30 01:33N 55°51' E 016°07'1716.6
2014-Sep-30 00:34N 55°43' E 015°41'1716.6
2014-Sep-29 23:33N 55°35' E 015°16'1716.9
2014-Sep-29 22:33N 55°27' E 014°49'1716.9
2014-Sep-29 21:33N 55°15' E 014°28'1717.0
2014-Sep-29 20:34N 55°02' E 014°09'1717.1
2014-Sep-29 19:34N 54°56' E 013°41'1716.5
2014-Sep-29 18:33N 54°51' E 013°13'1716.0
2014-Sep-29 17:30N 54°46' E 012°45'1617.0
2014-Sep-29 16:33N 54°37' E 012°22'1615.9
2014-Sep-29 15:33N 54°25' E 012°05'1717.5
2014-Sep-29 14:33N 54°27' E 011°36'1817.7
2014-Sep-29 13:33N 54°35' E 011°09'1515.5
2014-Sep-29 12:33N 54°47' E 010°52'1816.7
2014-Sep-29 11:29N 55°04' E 011°01'2216.4
2014-Sep-29 10:10N 55°26' E 010°57'1417.9
2014-Sep-29 09:24N 55°38' E 010°47'1416.4
2014-Sep-29 08:32N 55°52' E 010°52'1616.5
2014-Sep-29 07:32N 56°06' E 011°08'2517.4
2014-Sep-29 06:06N 56°27' E 011°33'917.0
2014-Sep-29 05:33N 56°35' E 011°41'1616.0
2014-Sep-29 04:33N 56°50' E 011°49'1817.9
2014-Sep-29 03:33N 57°07' E 011°38'1717.5
2014-Sep-29 02:33N 57°23' E 011°27'1717.4
2014-Sep-29 01:33N 57°37' E 011°06'1717.6
2014-Sep-29 00:33N 57°48' E 010°41'1717.5
2014-Sep-28 23:33N 57°46' E 010°09'13516.4
2014-Sep-28 15:20N 56°02' E 007°30'1317.0
2014-Sep-28 14:33N 55°49' E 007°24'1616.5
2014-Sep-28 13:33N 55°33' E 007°21'1716.7
2014-Sep-28 12:33N 55°17' E 007°25'1616.5
2014-Sep-28 11:34N 55°00' E 007°27'1616.4
2014-Sep-28 10:33N 54°44' E 007°28'1616.3
2014-Sep-28 09:33N 54°28' E 007°31'1616.2
2014-Sep-28 08:33N 54°12' E 007°40'1716.9
2014-Sep-28 07:33N 54°02' E 008°02'1717.1
2014-Sep-28 06:33N 53°58' E 008°31'1616.2
2014-Sep-28 05:33N 53°51' E 008°55'1312.7
2014-Sep-28 04:34N 53°52' E 009°17'1414.5
2014-Sep-28 03:33N 53°40' E 009°31'1211.8
2014-Sep-28 02:33N 53°34' E 009°47'5 4.9
2014-Sep-28 01:33N 53°32' E 009°55'0 0.0
2014-Sep-28 00:31N 53°32' E 009°55'0 0.0
2014-Sep-27 23:31N 53°32' E 009°55'0 0.0
2014-Sep-27 22:34N 53°32' E 009°55'0 0.0
2014-Sep-27 21:33N 53°32' E 009°55'0 0.0
2014-Sep-27 20:33N 53°32' E 009°55'0 0.0
2014-Sep-27 19:32N 53°32' E 009°55'0 0.0
2014-Sep-27 18:32N 53°32' E 009°55'0 0.0
2014-Sep-27 17:28N 53°32' E 009°55'0 0.0
2014-Sep-27 16:31N 53°32' E 009°55'0 0.0
2014-Sep-27 15:33N 53°32' E 009°55'0 0.0
2014-Sep-27 14:33N 53°32' E 009°55'0 0.0
2014-Sep-27 13:33N 53°32' E 009°55'0 0.0
2014-Sep-27 12:32N 53°32' E 009°55'0 0.0
2014-Sep-27 11:32N 53°32' E 009°55'0 0.0
2014-Sep-27 10:31N 53°32' E 009°55'0 0.0
2014-Sep-27 09:31N 53°32' E 009°55'0 0.0
2014-Sep-27 08:33N 53°32' E 009°55'0 0.0
2014-Sep-27 07:33N 53°32' E 009°55'0 0.0
2014-Sep-27 06:33N 53°32' E 009°55'0 0.0
2014-Sep-27 05:32N 53°32' E 009°55'0 0.0
2014-Sep-27 04:33N 53°32' E 009°55'4 4.4
2014-Sep-27 03:33N 53°33' E 009°48'1211.6
2014-Sep-27 02:33N 53°39' E 009°31'1413.6
2014-Sep-27 01:34N 53°51' E 009°19'1010.2
2014-Sep-27 00:33N 53°52' E 009°02'1312.6
2014-Sep-26 23:33N 53°54' E 008°41'1716.8
2014-Sep-26 22:33N 53°60' E 008°14'9 9.2
2014-Sep-26 21:33N 53°58' E 007°58'7 7.3
2014-Sep-26 20:32N 53°56' E 007°46'47 9.2
2014-Sep-26 15:27N 53°46' E 006°29'1112.4
2014-Sep-26 14:33N 53°43' E 006°11'1211.9
2014-Sep-26 13:34N 53°39' E 005°52'1211.7
2014-Sep-26 12:33N 53°36' E 005°33'1211.7
2014-Sep-26 11:34N 53°32' E 005°15'1212.1
2014-Sep-26 10:33N 53°27' E 004°56'1211.5
2014-Sep-26 09:33N 53°20' E 004°40'1512.2
2014-Sep-26 08:17N 53°07' E 004°28'912.3
2014-Sep-26 07:33N 52°59' E 004°20'1211.6
2014-Sep-26 06:32N 52°49' E 004°12'2311.8
2014-Sep-26 04:33N 52°28' E 003°54'1211.7
2014-Sep-26 03:33N 52°16' E 003°52'2110.3
2014-Sep-26 01:33N 51°57' E 004°05'1 0.7
2014-Sep-26 00:34N 51°57' E 004°04'0 0.0
2014-Sep-25 23:32N 51°57' E 004°04'0 0.0
2014-Sep-25 22:32N 51°57' E 004°04'0 0.0
2014-Sep-25 21:31N 51°57' E 004°04'0 0.0
2014-Sep-25 20:31N 51°57' E 004°04'0 0.0
2014-Sep-25 19:33N 51°57' E 004°04'0 0.0
2014-Sep-25 18:33N 51°57' E 004°04'0 0.0
2014-Sep-25 17:33N 51°57' E 004°04'0 0.0
2014-Sep-25 16:33N 51°57' E 004°04'0 0.0
2014-Sep-25 15:33N 51°57' E 004°04'0 0.0
2014-Sep-25 14:33N 51°57' E 004°04'0 0.1
2014-Sep-25 13:33N 51°57' E 004°04'4 4.2
2014-Sep-25 12:33N 52°00' E 003°59'10 9.8
2014-Sep-25 11:33N 51°59' E 003°43'28 8.0
2014-Sep-25 08:06N 51°51' E 003°00'2415.1
2014-Sep-25 06:33N 51°30' E 002°42'9 9.2
2014-Sep-25 05:33N 51°25' E 002°55'1211.8
2014-Sep-25 04:34N 51°20' E 003°12'0 0.5
2014-Sep-25 03:32N 51°20' E 003°12'0 0.0
2014-Sep-25 02:29N 51°20' E 003°12'0 0.0
2014-Sep-25 01:31N 51°20' E 003°12'0 0.0
2014-Sep-25 00:28N 51°20' E 003°12'0 0.0
2014-Sep-24 23:19N 51°20' E 003°12'0 0.0
2014-Sep-24 20:33N 51°20' E 003°12'0 0.0
2014-Sep-24 19:29N 51°20' E 003°12'0 0.0
2014-Sep-24 18:28N 51°20' E 003°12'0 0.0
2014-Sep-24 17:28N 51°20' E 003°12'0 0.0
2014-Sep-24 16:27N 51°20' E 003°12'0 0.0
2014-Sep-24 15:33N 51°20' E 003°12'0 0.0
2014-Sep-24 14:33N 51°20' E 003°12'0 0.0
2014-Sep-24 13:20N 51°20' E 003°12'0 0.0
2014-Sep-24 12:29N 51°20' E 003°12'0 0.0
2014-Sep-24 11:16N 51°20' E 003°12'0 0.0
2014-Sep-24 10:31N 51°20' E 003°12'0 0.0
2014-Sep-24 09:12N 51°20' E 003°12'0 0.0
2014-Sep-24 08:30N 51°20' E 003°12'0 0.0
2014-Sep-24 07:15N 51°20' E 003°12'0 0.0
2014-Sep-24 06:23N 51°20' E 003°12'0 0.0
2014-Sep-24 05:29N 51°20' E 003°12'0 0.0
2014-Sep-24 04:25N 51°20' E 003°12'0 0.0
2014-Sep-24 03:31N 51°20' E 003°12'0 0.0
2014-Sep-24 02:31N 51°20' E 003°12'0 0.0
2014-Sep-24 01:27N 51°20' E 003°12'0 0.0
2014-Sep-24 00:33N 51°20' E 003°12'0 0.0
2014-Sep-23 23:08N 51°20' E 003°12'0 0.0
2014-Sep-23 22:21N 51°20' E 003°12'8 7.2
2014-Sep-23 21:15N 51°24' E 003°00'1215.0
2014-Sep-23 20:26N 51°22' E 002°41'1112.3
2014-Sep-23 19:32N 51°20' E 002°23'1515.2
2014-Sep-23 18:33N 51°22' E 001°60'1615.9
2014-Sep-23 17:34N 51°36' E 002°12'8216.0
2014-Sep-23 12:27N 52°40' E 003°35'1517.2
2014-Sep-23 11:33N 52°52' E 003°52'1717.5
2014-Sep-23 10:34N 53°04' E 004°13'1817.2
2014-Sep-23 09:31N 53°19' E 004°29'1717.3
2014-Sep-23 08:33N 53°34' E 004°38'2016.8
2014-Sep-23 07:21N 53°54' E 004°48'1316.8
2014-Sep-23 06:33N 54°07' E 004°55'1716.7
2014-Sep-23 05:32N 54°20' E 005°14'5917.1
2014-Sep-23 02:06N 55°08' E 006°11'1017.3
2014-Sep-23 01:33N 55°17' E 006°19'1717.4
2014-Sep-23 00:33N 55°32' E 006°34'186 6.2
2014-Sep-21 18:29N 57°50' E 010°22'1516.4
2014-Sep-21 17:33N 57°46' E 010°50'1716.6
2014-Sep-21 16:33N 57°35' E 011°12'1515.3
2014-Sep-21 15:33N 57°22' E 011°29'1616.0
2014-Sep-21 14:33N 57°07' E 011°39'1616.1
2014-Sep-21 13:33N 56°52' E 011°49'1515.1
2014-Sep-21 12:33N 56°37' E 011°45'12014.9
2014-Sep-21 04:33N 54°41' E 010°56'1616.2
2014-Sep-21 03:33N 54°33' E 011°20'1616.4
2014-Sep-21 02:33N 54°26' E 011°46'1515.3
2014-Sep-21 01:33N 54°29' E 012°12'1615.8
2014-Sep-21 00:33N 54°41' E 012°29'1716.8
2014-Sep-20 23:33N 54°50' E 012°54'1716.7
2014-Sep-20 22:33N 54°56' E 013°21'1716.5
2014-Sep-20 21:33N 55°01' E 013°48'1616.1
2014-Sep-20 20:33N 55°10' E 014°12'1716.8
2014-Sep-20 19:33N 55°23' E 014°30'1716.8
2014-Sep-20 18:33N 55°33' E 014°54'1716.8
2014-Sep-20 17:33N 55°41' E 015°20'1817.0
2014-Sep-20 16:31N 55°50' E 015°47'1617.0
2014-Sep-20 15:33N 55°58' E 016°13'8517.0
2014-Sep-20 10:33N 56°47' E 018°17'1717.1
2014-Sep-20 09:33N 56°60' E 018°38'  
Track history (hours):
 
Tides and Currents Weather Stations Pressure Air Temp Water Temp Dewpoint Dewpoint Depression Visibility Wind Speed Wind Dir Waves Ship Positions

Jonni Ritscher

Last reported at 2014-Sep-30 08:33 UTC. Time now 2014-Sep-30 18:08 UTC.
Position N 57°03' E 018°51'.

Length 178 m; draft 10.5 m.

Type: Ship. MMSI: 636091136.

Date/timePositionNaut miles runAvg speedWind from/ knotsBaromVisibWave heightAir tempDewpointWater temp
2014-Sep-30 08:33N 57°03' E 018°51'1716.6
2014-Sep-30 07:32N 56°49' E 018°32'1616.8
2014-Sep-30 06:33N 56°39' E 018°08'2217.6
2014-Sep-30 05:19N 56°26' E 017°37'1416.5
2014-Sep-30 04:30N 56°17' E 017°18'3116.3
2014-Sep-30 02:33N 55°58' E 016°33'1616.3
2014-Sep-30 01:33N 55°51' E 016°07'1716.6
2014-Sep-30 00:34N 55°43' E 015°41'1716.6
2014-Sep-29 23:33N 55°35' E 015°16'1716.9
2014-Sep-29 22:33N 55°27' E 014°49'1716.9
2014-Sep-29 21:33N 55°15' E 014°28'1717.0
2014-Sep-29 20:34N 55°02' E 014°09'1717.1
2014-Sep-29 19:34N 54°56' E 013°41'1716.5
2014-Sep-29 18:33N 54°51' E 013°13'1716.0
2014-Sep-29 17:30N 54°46' E 012°45'1617.0
2014-Sep-29 16:33N 54°37' E 012°22'1615.9
2014-Sep-29 15:33N 54°25' E 012°05'1717.5
2014-Sep-29 14:33N 54°27' E 011°36'1817.7
2014-Sep-29 13:33N 54°35' E 011°09'1515.5
2014-Sep-29 12:33N 54°47' E 010°52'1816.7
2014-Sep-29 11:29N 55°04' E 011°01'2216.4
2014-Sep-29 10:10N 55°26' E 010°57'1417.9
2014-Sep-29 09:24N 55°38' E 010°47'1416.4
2014-Sep-29 08:32N 55°52' E 010°52'1616.5
2014-Sep-29 07:32N 56°06' E 011°08'2517.4
2014-Sep-29 06:06N 56°27' E 011°33'917.0
2014-Sep-29 05:33N 56°35' E 011°41'1616.0
2014-Sep-29 04:33N 56°50' E 011°49'1817.9
2014-Sep-29 03:33N 57°07' E 011°38'1717.5
2014-Sep-29 02:33N 57°23' E 011°27'1717.4
2014-Sep-29 01:33N 57°37' E 011°06'1717.6
2014-Sep-29 00:33N 57°48' E 010°41'1717.5
2014-Sep-28 23:33N 57°46' E 010°09'13516.4
2014-Sep-28 15:20N 56°02' E 007°30'1317.0
2014-Sep-28 14:33N 55°49' E 007°24'1616.5
2014-Sep-28 13:33N 55°33' E 007°21'1716.7
2014-Sep-28 12:33N 55°17' E 007°25'1616.5
2014-Sep-28 11:34N 55°00' E 007°27'1616.4
2014-Sep-28 10:33N 54°44' E 007°28'1616.3
2014-Sep-28 09:33N 54°28' E 007°31'1616.2
2014-Sep-28 08:33N 54°12' E 007°40'1716.9
2014-Sep-28 07:33N 54°02' E 008°02'1717.1
2014-Sep-28 06:33N 53°58' E 008°31'1616.2
2014-Sep-28 05:33N 53°51' E 008°55'1312.7
2014-Sep-28 04:34N 53°52' E 009°17'1414.5
2014-Sep-28 03:33N 53°40' E 009°31'1211.8
2014-Sep-28 02:33N 53°34' E 009°47'5 4.9
2014-Sep-28 01:33N 53°32' E 009°55'0 0.0
2014-Sep-28 00:31N 53°32' E 009°55'0 0.0
2014-Sep-27 23:31N 53°32' E 009°55'0 0.0
2014-Sep-27 22:34N 53°32' E 009°55'0 0.0
2014-Sep-27 21:33N 53°32' E 009°55'0 0.0
2014-Sep-27 20:33N 53°32' E 009°55'0 0.0
2014-Sep-27 19:32N 53°32' E 009°55'0 0.0
2014-Sep-27 18:32N 53°32' E 009°55'0 0.0
2014-Sep-27 17:28N 53°32' E 009°55'0 0.0
2014-Sep-27 16:31N 53°32' E 009°55'0 0.0
2014-Sep-27 15:33N 53°32' E 009°55'0 0.0
2014-Sep-27 14:33N 53°32' E 009°55'0 0.0
2014-Sep-27 13:33N 53°32' E 009°55'0 0.0
2014-Sep-27 12:32N 53°32' E 009°55'0 0.0
2014-Sep-27 11:32N 53°32' E 009°55'0 0.0
2014-Sep-27 10:31N 53°32' E 009°55'0 0.0
2014-Sep-27 09:31N 53°32' E 009°55'0 0.0
2014-Sep-27 08:33N 53°32' E 009°55'0 0.0
2014-Sep-27 07:33N 53°32' E 009°55'0 0.0
2014-Sep-27 06:33N 53°32' E 009°55'0 0.0
2014-Sep-27 05:32N 53°32' E 009°55'0 0.0
2014-Sep-27 04:33N 53°32' E 009°55'4 4.4
2014-Sep-27 03:33N 53°33' E 009°48'1211.6
2014-Sep-27 02:33N 53°39' E 009°31'1413.6
2014-Sep-27 01:34N 53°51' E 009°19'1010.2
2014-Sep-27 00:33N 53°52' E 009°02'1312.6
2014-Sep-26 23:33N 53°54' E 008°41'1716.8
2014-Sep-26 22:33N 53°60' E 008°14'9 9.2
2014-Sep-26 21:33N 53°58' E 007°58'7 7.3
2014-Sep-26 20:32N 53°56' E 007°46'47 9.2
2014-Sep-26 15:27N 53°46' E 006°29'1112.4
2014-Sep-26 14:33N 53°43' E 006°11'1211.9
2014-Sep-26 13:34N 53°39' E 005°52'1211.7
2014-Sep-26 12:33N 53°36' E 005°33'1211.7
2014-Sep-26 11:34N 53°32' E 005°15'1212.1
2014-Sep-26 10:33N 53°27' E 004°56'1211.5
2014-Sep-26 09:33N 53°20' E 004°40'1512.2
2014-Sep-26 08:17N 53°07' E 004°28'912.3
2014-Sep-26 07:33N 52°59' E 004°20'1211.6
2014-Sep-26 06:32N 52°49' E 004°12'2311.8
2014-Sep-26 04:33N 52°28' E 003°54'1211.7
2014-Sep-26 03:33N 52°16' E 003°52'2110.3
2014-Sep-26 01:33N 51°57' E 004°05'1 0.7
2014-Sep-26 00:34N 51°57' E 004°04'0 0.0
2014-Sep-25 23:32N 51°57' E 004°04'0 0.0
2014-Sep-25 22:32N 51°57' E 004°04'0 0.0
2014-Sep-25 21:31N 51°57' E 004°04'0 0.0
2014-Sep-25 20:31N 51°57' E 004°04'0 0.0
2014-Sep-25 19:33N 51°57' E 004°04'0 0.0
2014-Sep-25 18:33N 51°57' E 004°04'0 0.0
2014-Sep-25 17:33N 51°57' E 004°04'0 0.0
2014-Sep-25 16:33N 51°57' E 004°04'0 0.0
2014-Sep-25 15:33N 51°57' E 004°04'0 0.0
2014-Sep-25 14:33N 51°57' E 004°04'0 0.1
2014-Sep-25 13:33N 51°57' E 004°04'4 4.2
2014-Sep-25 12:33N 52°00' E 003°59'10 9.8
2014-Sep-25 11:33N 51°59' E 003°43'28 8.0
2014-Sep-25 08:06N 51°51' E 003°00'2415.1
2014-Sep-25 06:33N 51°30' E 002°42'9 9.2
2014-Sep-25 05:33N 51°25' E 002°55'1211.8
2014-Sep-25 04:34N 51°20' E 003°12'0 0.5
2014-Sep-25 03:32N 51°20' E 003°12'0 0.0
2014-Sep-25 02:29N 51°20' E 003°12'0 0.0
2014-Sep-25 01:31N 51°20' E 003°12'0 0.0
2014-Sep-25 00:28N 51°20' E 003°12'0 0.0
2014-Sep-24 23:19N 51°20' E 003°12'0 0.0
2014-Sep-24 20:33N 51°20' E 003°12'0 0.0
2014-Sep-24 19:29N 51°20' E 003°12'0 0.0
2014-Sep-24 18:28N 51°20' E 003°12'0 0.0
2014-Sep-24 17:28N 51°20' E 003°12'0 0.0
2014-Sep-24 16:27N 51°20' E 003°12'0 0.0
2014-Sep-24 15:33N 51°20' E 003°12'0 0.0
2014-Sep-24 14:33N 51°20' E 003°12'0 0.0
2014-Sep-24 13:20N 51°20' E 003°12'0 0.0
2014-Sep-24 12:29N 51°20' E 003°12'0 0.0
2014-Sep-24 11:16N 51°20' E 003°12'0 0.0
2014-Sep-24 10:31N 51°20' E 003°12'0 0.0
2014-Sep-24 09:12N 51°20' E 003°12'0 0.0
2014-Sep-24 08:30N 51°20' E 003°12'0 0.0
2014-Sep-24 07:15N 51°20' E 003°12'0 0.0
2014-Sep-24 06:23N 51°20' E 003°12'0 0.0
2014-Sep-24 05:29N 51°20' E 003°12'0 0.0
2014-Sep-24 04:25N 51°20' E 003°12'0 0.0
2014-Sep-24 03:31N 51°20' E 003°12'0 0.0
2014-Sep-24 02:31N 51°20' E 003°12'0 0.0
2014-Sep-24 01:27N 51°20' E 003°12'0 0.0
2014-Sep-24 00:33N 51°20' E 003°12'0 0.0
2014-Sep-23 23:08N 51°20' E 003°12'0 0.0
2014-Sep-23 22:21N 51°20' E 003°12'8 7.2
2014-Sep-23 21:15N 51°24' E 003°00'1215.0
2014-Sep-23 20:26N 51°22' E 002°41'1112.3
2014-Sep-23 19:32N 51°20' E 002°23'1515.2
2014-Sep-23 18:33N 51°22' E 001°60'1615.9
2014-Sep-23 17:34N 51°36' E 002°12'8216.0
2014-Sep-23 12:27N 52°40' E 003°35'1517.2
2014-Sep-23 11:33N 52°52' E 003°52'1717.5
2014-Sep-23 10:34N 53°04' E 004°13'1817.2
2014-Sep-23 09:31N 53°19' E 004°29'1717.3
2014-Sep-23 08:33N 53°34' E 004°38'2016.8
2014-Sep-23 07:21N 53°54' E 004°48'1316.8
2014-Sep-23 06:33N 54°07' E 004°55'1716.7
2014-Sep-23 05:32N 54°20' E 005°14'5917.1
2014-Sep-23 02:06N 55°08' E 006°11'1017.3
2014-Sep-23 01:33N 55°17' E 006°19'1717.4
2014-Sep-23 00:33N 55°32' E 006°34'186 6.2
2014-Sep-21 18:29N 57°50' E 010°22'1516.4
2014-Sep-21 17:33N 57°46' E 010°50'1716.6
2014-Sep-21 16:33N 57°35' E 011°12'1515.3
2014-Sep-21 15:33N 57°22' E 011°29'1616.0
2014-Sep-21 14:33N 57°07' E 011°39'1616.1
2014-Sep-21 13:33N 56°52' E 011°49'1515.1
2014-Sep-21 12:33N 56°37' E 011°45'12014.9
2014-Sep-21 04:33N 54°41' E 010°56'1616.2
2014-Sep-21 03:33N 54°33' E 011°20'1616.4
2014-Sep-21 02:33N 54°26' E 011°46'1515.3
2014-Sep-21 01:33N 54°29' E 012°12'1615.8
2014-Sep-21 00:33N 54°41' E 012°29'1716.8
2014-Sep-20 23:33N 54°50' E 012°54'1716.7
2014-Sep-20 22:33N 54°56' E 013°21'1716.5
2014-Sep-20 21:33N 55°01' E 013°48'1616.1
2014-Sep-20 20:33N 55°10' E 014°12'1716.8
2014-Sep-20 19:33N 55°23' E 014°30'1716.8
2014-Sep-20 18:33N 55°33' E 014°54'1716.8
2014-Sep-20 17:33N 55°41' E 015°20'1817.0
2014-Sep-20 16:31N 55°50' E 015°47'1617.0
2014-Sep-20 15:33N 55°58' E 016°13'8517.0
2014-Sep-20 10:33N 56°47' E 018°17'1717.1
2014-Sep-20 09:33N 56°60' E 018°38'  

Dump ship's entire track history